Latest Weather Observations for Tarcoola

IDS60801

Issued at 2:01 pm CDT Sunday 26 March 2017 (issued every 30 minutes, with the page automatically refreshed every 10 minutes)

About weather observations | Map of weather stations | Latest weather observations for SA | Other Formats
Station Details ID: 016098 Name: TARCOOLA AERO Lat: -30.71 Lon: 134.58 Height: 123.0 m
Data from the previous 72 hours. | See also: Recent months at Tarcoola
Date/Time
CDT
Temp
°C
App
Temp
°C
Dew
Point
°C
Rel
Hum
%
Delta-T
°C
Wind Press
QNH
hPa
Press
MSL
hPa
Rain since
9am
mm
Dir  Spd
km/h
Gust
km/h
Spd
kts
Gust
kts
26/02:00pm 41.7 35.6 6.5 12 20.0 N 28 46 15 25 1007.4 1006.8 0.0
26/01:58pm 42.2 35.9 5.6 11 20.6 N 28 46 15 25 1007.5 1006.9 0.0
26/01:30pm 41.7 34.2 6.5 12 20.0 N 35 48 19 26 1008.0 1007.4 0.0
26/01:15pm 41.3 34.2 6.2 12 19.8 NNE 33 54 18 29 1008.3 1007.7 0.0
26/01:00pm 41.5 34.6 6.4 12 19.9 NNE 32 44 17 24 1008.6 1008.0 0.0
26/12:30pm 40.5 33.7 6.7 13 19.2 N 32 44 17 24 1009.0 1008.5 0.0
26/12:00pm 38.9 32.0 6.6 14 18.2 NNE 32 41 17 22 1009.5 1009.0 0.0
26/11:30am 37.3 30.4 7.3 16 16.9 NNE 33 46 18 25 1009.9 1009.4 0.0
26/11:00am 36.6 30.5 8.4 18 16.1 NNE 30 43 16 23 1010.2 1009.7 0.0
26/10:30am 34.9 28.5 9.3 21 14.7 NNE 33 46 18 25 1010.4 1009.9 0.0
26/10:00am 32.3 27.7 9.8 25 12.9 NE 24 39 13 21 1010.4 1009.9 0.0
26/09:30am 29.9 25.4 9.9 29 11.4 NE 24 32 13 17 1010.5 1010.0 0.0
26/09:00am 28.1 24.1 10.3 33 10.1 ENE 22 32 12 17 1010.5 1010.0 0.0
26/08:30am 26.3 23.4 10.9 38 8.7 ENE 17 22 9 12 1010.6 1010.1 0.0
26/08:00am 24.7 22.4 10.6 41 7.9 ENE 13 15 7 8 1010.5 1010.0 0.0
26/07:30am 24.6 21.9 10.5 41 7.9 ENE 15 17 8 9 1010.5 1010.0 0.0
26/07:00am 25.2 22.6 10.6 40 8.2 ENE 15 20 8 11 1010.4 1009.9 0.0
26/06:30am 25.5 22.8 10.5 39 8.4 ENE 15 19 8 10 1010.3 1009.8 0.0
26/06:00am 25.7 23.0 10.3 38 8.6 ENE 15 19 8 10 1010.2 1009.7 0.0
26/05:30am 26.2 23.0 10.0 36 9.0 ENE 17 22 9 12 1010.1 1009.6 0.0
26/05:00am 26.4 23.1 9.7 35 9.3 E 17 20 9 11 1010.1 1009.6 0.0
26/04:30am 26.3 23.8 9.6 35 9.3 E 13 19 7 10 1010.0 1009.5 0.0
26/04:00am 27.0 23.7 9.4 33 9.8 E 17 22 9 12 1010.2 1009.7 0.0
26/03:30am 27.3 23.9 9.2 32 10.0 E 17 22 9 12 1010.4 1009.9 0.0
26/03:00am 27.5 23.6 9.3 32 10.1 E 20 26 11 14 1010.4 1009.9 0.0
26/02:30am 28.0 24.3 9.3 31 10.4 ESE 19 24 10 13 1010.7 1010.2 0.0
26/02:00am 28.6 25.0 9.8 31 10.6 E 19 26 10 14 1010.8 1010.3 0.0
26/01:30am 29.2 24.7 9.9 30 10.9 E 24 30 13 16 1011.0 1010.5 0.0
26/01:00am 29.6 25.4 9.7 29 11.2 ESE 22 30 12 16 1011.3 1010.8 0.0
26/12:30am 30.2 26.6 9.7 28 11.6 SE 19 28 10 15 1011.6 1011.1 0.0
26/12:00am 30.7 26.8 9.6 27 12.0 ESE 20 30 11 16 1012.0 1011.4 0.0
 
Date/Time
CDT
Temp
°C
App
Temp
°C
Dew
Point
°C
Rel
Hum
%
Delta-T
°C
Wind Press
QNH
hPa
Press
MSL
hPa
Rain since
9am
mm
Dir  Spd
km/h
Gust
km/h
Spd
kts
Gust
kts
25/11:30pm 30.8 27.5 9.6 27 12.0 SSE 17 24 9 13 1012.1 1011.5 0.0
25/11:00pm 31.1 28.0 8.8 25 12.5 SE 15 17 8 9 1012.1 1011.5 0.0
25/10:30pm 30.9 28.4 8.0 24 12.7 SSW 11 15 6 8 1012.1 1011.5 0.0
25/10:00pm 33.0 29.8 8.5 22 13.8 ESE 15 19 8 10 1011.7 1011.2 0.0
25/09:30pm 33.5 30.2 8.2 21 14.2 ESE 15 20 8 11 1011.4 1010.9 0.0
25/09:00pm 33.9 30.5 7.8 20 14.6 ESE 15 20 8 11 1011.0 1010.5 0.0
25/08:30pm 34.6 30.8 7.6 19 15.1 E 17 20 9 11 1010.7 1010.2 0.0
25/08:00pm 35.5 31.1 7.6 18 15.7 E 20 28 11 15 1010.5 1010.0 0.0
25/07:30pm 36.4 32.0 7.4 17 16.3 E 20 26 11 14 1010.0 1009.5 0.0
25/07:00pm 37.4 34.3 7.3 16 17.0 E 13 17 7 9 1009.5 1009.0 0.0
25/06:30pm 37.8 34.4 7.7 16 17.1 SE 15 20 8 11 1009.5 1009.0 0.0
25/06:00pm 38.4 34.7 8.1 16 17.4 ESE 17 26 9 14 1009.4 1008.9 0.0
25/05:30pm 38.9 35.9 7.6 15 17.9 E 13 20 7 11 1009.4 1008.9 0.0
25/05:00pm 39.3 37.7 7.9 15 18.0 SW 6 20 3 11 1009.3 1008.8 0.0
25/04:30pm 39.3 37.1 7.9 15 18.0 ENE 9 17 5 9 1009.5 1009.0 0.0
25/04:00pm 38.7 35.9 8.4 16 17.5 S 13 22 7 12 1009.7 1009.2 0.0
25/03:30pm 38.4 36.8 8.1 16 17.4 NNW 6 13 3 7 1010.0 1009.5 0.0
25/03:00pm 37.7 35.7 8.5 17 16.8 S 9 19 5 10 1010.4 1009.9 0.0
25/02:30pm 38.1 35.4 8.8 17 17.0 SW 13 17 7 9 1010.8 1010.3 0.0
25/02:00pm 36.7 35.0 8.5 18 16.1 SE 7 17 4 9 1011.4 1010.9 0.0
25/01:30pm 35.6 33.7 9.2 20 15.2 ENE 9 17 5 9 1012.0 1011.4 0.0
25/01:00pm 35.5 34.2 9.8 21 14.9 SE 7 11 4 6 1012.7 1012.1 0.0
25/12:30pm 34.8 33.5 9.3 21 14.6 S 6 11 3 6 1013.2 1012.6 0.0
25/12:00pm 33.8 33.0 9.8 23 13.8 ENE 4 11 2 6 1013.4 1012.8 0.0
25/11:30am 32.7 31.1 10.1 25 13.0 ESE 9 15 5 8 1013.5 1012.9 0.0
25/11:00am 31.8 29.5 10.5 27 12.3 ESE 13 17 7 9 1013.5 1012.9 0.0
25/10:30am 29.8 27.9 10.4 30 11.1 E 11 17 6 9 1013.6 1013.0 0.0
25/10:00am 28.9 26.8 11.0 33 10.3 E 13 20 7 11 1013.7 1013.1 0.0
25/09:30am 28.1 25.9 10.8 34 9.9 E 13 20 7 11 1013.5 1012.9 0.0
25/09:00am 26.6 25.7 11.5 39 8.7 SE 7 13 4 7 1013.4 1012.8 0.0
25/08:30am 22.7 21.6 10.5 46 6.7 SSW 7 9 4 5 1013.2 1012.6 0.0
25/08:00am 20.7 18.7 10.2 51 5.7 SW 11 13 6 7 1012.9 1012.3 0.0
25/07:30am 20.5 18.8 9.7 50 5.8 SW 9 13 5 7 1012.5 1011.9 0.0
25/07:00am 22.4 21.8 10.5 47 6.6 ESE 4 6 2 3 1011.8 1011.3 0.0
25/06:30am 23.5 22.4 10.6 44 7.2 E 7 11 4 6 1011.5 1011.0 0.0
25/06:00am 21.4 20.4 10.3 49 6.1 E 6 9 3 5 1011.3 1010.8 0.0
25/05:30am 21.3 20.0 9.9 48 6.2 SW 7 9 4 5 1011.6 1011.1 0.0
25/05:00am 22.2 21.0 9.7 45 6.8 SW 6 7 3 4 1011.8 1011.3 0.0
25/04:30am 23.3 23.5 10.4 44 7.1 CALM 0 0 0 0 1011.6 1011.1 0.0
25/04:00am 23.1 21.8 9.8 43 7.3 SSW 7 9 4 5 1011.6 1011.1 0.0
25/03:30am 24.3 23.0 9.8 40 8.0 S 7 11 4 6 1011.6 1011.1 0.0
25/03:00am 24.6 23.0 10.1 40 8.0 SSW 9 13 5 7 1011.7 1011.2 0.0
25/02:30am 24.4 22.7 9.9 40 8.0 SW 9 13 5 7 1011.5 1011.0 0.0
25/02:00am 25.4 23.9 9.3 36 8.8 S 7 11 4 6 1011.5 1011.0 0.0
25/01:30am 25.2 23.2 8.7 35 9.0 SW 9 11 5 6 1011.8 1011.3 0.0
25/01:00am 26.2 24.6 8.7 33 9.5 S 7 9 4 5 1012.1 1011.5 0.0
25/12:30am 25.9 23.1 8.4 33 9.5 SW 13 15 7 8 1012.6 1012.0 0.0
25/12:00am 25.9 23.8 8.4 33 9.5 WSW 9 11 5 6 1012.5 1011.9 0.0
 
Date/Time
CDT
Temp
°C
App
Temp
°C
Dew
Point
°C
Rel
Hum
%
Delta-T
°C
Wind Press
QNH
hPa
Press
MSL
hPa
Rain since
9am
mm
Dir  Spd
km/h
Gust
km/h
Spd
kts
Gust
kts
24/11:30pm 26.4 24.1 7.4 30 10.1 SE 9 9 5 5 1012.4 1011.8 0.0
24/11:00pm 27.6 25.7 7.5 28 10.8 SE 7 9 4 5 1012.3 1011.7 0.0
24/10:30pm 28.8 26.6 7.9 27 11.4 SE 9 11 5 6 1012.4 1011.8 0.0
24/10:00pm 29.5 27.3 8.0 26 11.8 ESE 9 9 5 5 1012.2 1011.6 0.0
24/09:30pm 30.7 28.5 7.8 24 12.6 E 9 11 5 6 1012.0 1011.4 0.0
24/09:00pm 32.0 29.1 8.3 23 13.2 E 13 17 7 9 1011.4 1010.9 0.0
24/08:30pm 33.0 29.4 8.5 22 13.8 E 17 20 9 11 1011.2 1010.7 0.0
24/08:00pm 33.6 29.8 9.0 22 14.0 ESE 19 26 10 14 1011.0 1010.5 0.0
24/07:30pm 34.3 32.0 7.4 19 15.0 SSE 9 15 5 8 1011.1 1010.6 0.0
24/07:00pm 35.0 31.9 7.1 18 15.5 SSE 13 19 7 10 1010.9 1010.4 0.0
24/06:30pm 35.5 31.7 7.6 18 15.7 SSE 17 24 9 13 1010.5 1010.0 0.0
24/06:00pm 35.7 33.1 7.7 18 15.8 S 11 19 6 10 1010.5 1010.0 0.0
24/05:30pm 36.1 33.0 7.2 17 16.2 SE 13 22 7 12 1010.4 1009.9 0.0
24/05:00pm 36.4 33.7 7.4 17 16.3 S 11 20 6 11 1010.5 1010.0 0.0
24/04:30pm 36.6 34.1 8.4 18 16.1 S 11 20 6 11 1010.4 1009.9 0.0
24/04:00pm 35.6 32.6 7.6 18 15.7 SE 13 19 7 10 1010.6 1010.1 0.0
24/03:30pm 36.0 34.0 8.7 19 15.6 WSW 9 15 5 8 1010.8 1010.3 0.0
24/03:00pm 35.2 32.9 7.3 18 15.6 SSW 9 17 5 9 1011.1 1010.6 0.0
24/02:30pm 35.2 33.6 8.1 19 15.3 W 6 13 3 7 1011.5 1011.0 0.0
24/02:00pm 35.6 33.5 8.4 19 15.5 WNW 9 19 5 10 1012.0 1011.4 0.0
24/01:30pm 35.1 32.7 8.8 20 15.0 NW 11 20 6 11 1012.5 1011.9 0.0
24/01:00pm 34.1 32.3 9.4 22 14.2 NE 9 20 5 11 1012.9 1012.3 0.0
24/12:30pm 33.0 31.3 9.7 24 13.4 NNE 9 19 5 10 1013.4 1012.8 0.0
24/12:00pm 32.2 30.1 9.7 25 12.9 NE 11 20 6 11 1013.7 1013.1 0.0
24/11:30am 31.0 27.4 9.8 27 12.1 NE 19 24 10 13 1013.7 1013.1 0.0
24/11:00am 30.7 27.5 10.1 28 11.8 ENE 17 22 9 12 1013.9 1013.3 0.0
24/10:30am 29.0 26.3 10.2 31 10.7 NE 15 22 8 12 1013.7 1013.1 0.0
24/10:00am 28.0 25.6 10.2 33 10.0 ENE 13 20 7 11 1013.7 1013.1 0.0
24/09:30am 25.5 24.1 10.9 40 8.2 ENE 9 11 5 6 1013.9 1013.3 0.0
24/09:00am 23.9 24.2 10.9 44 7.3 CALM 0 0 0 0 1013.4 1012.8 0.0
24/08:30am 23.5 22.7 10.9 45 7.0 ENE 6 11 3 6 1012.9 1012.3 0.0
24/08:00am 20.6 20.0 10.4 52 5.6 ENE 4 6 2 3 1013.0 1012.4 0.0
24/07:30am 20.9 19.0 10.4 51 5.7 ENE 11 13 6 7 1012.4 1011.8 0.0
24/07:00am 20.7 20.6 9.6 49 6.0 CALM 0 0 0 0 1012.7 1012.1 0.0
24/06:30am 22.5 21.3 10.3 46 6.7 E 7 11 4 6 1012.2 1011.6 0.0
24/06:00am 23.6 20.6 10.6 44 7.2 ENE 17 20 9 11 1011.7 1011.2 0.0
24/05:30am 23.9 20.9 10.6 43 7.4 ENE 17 20 9 11 1011.7 1011.2 0.0
24/05:00am 24.3 20.7 10.6 42 7.6 ENE 20 28 11 15 1011.5 1011.0 0.0
24/04:30am 24.5 21.2 10.8 42 7.7 E 19 26 10 14 1011.8 1011.3 0.0
24/04:00am 24.7 21.7 10.6 41 7.9 ENE 17 20 9 11 1012.2 1011.6 0.0
24/03:30am 24.9 21.9 10.8 41 7.9 E 17 22 9 12 1012.4 1011.8 0.0
24/03:00am 24.7 22.1 10.6 41 7.9 ENE 15 19 8 10 1012.6 1012.0 0.0
24/02:30am 24.9 22.2 10.4 40 8.1 ENE 15 20 8 11 1012.6 1012.0 0.0
24/02:00am 24.5 22.2 10.4 41 7.9 ENE 13 15 7 8 1012.9 1012.3 0.0
24/01:30am 24.9 22.5 10.0 39 8.3 E 13 17 7 9 1013.1 1012.5 0.0
24/01:00am 25.1 22.6 9.8 38 8.5 E 13 15 7 8 1013.4 1012.8 0.0
24/12:30am 25.5 23.3 9.3 36 8.9 E 11 13 6 7 1013.8 1013.2 0.0
24/12:00am 26.2 23.6 9.5 35 9.2 E 13 17 7 9 1014.3 1013.7 0.0
 
Date/Time
CDT
Temp
°C
App
Temp
°C
Dew
Point
°C
Rel
Hum
%
Delta-T
°C
Wind Press
QNH
hPa
Press
MSL
hPa
Rain since
9am
mm
Dir  Spd
km/h
Gust
km/h
Spd
kts
Gust
kts
23/11:30pm 27.1 24.5 9.5 33 9.8 ESE 13 17 7 9 1014.6 1014.0 0.0
23/11:00pm 27.6 24.6 9.4 32 10.1 ESE 15 19 8 10 1014.5 1013.9 0.0
23/10:30pm 27.7 24.9 8.6 30 10.5 SE 13 17 7 9 1014.6 1014.0 0.0
23/10:00pm 28.2 25.1 7.4 27 11.2 SE 13 15 7 8 1014.5 1013.9 0.0
23/09:30pm 29.0 26.0 7.6 26 11.6 SE 13 17 7 9 1014.2 1013.6 0.0
23/09:00pm 29.3 26.6 8.9 28 11.3 ESE 13 17 7 9 1013.8 1013.2 0.0
23/08:30pm 30.1 27.6 9.6 28 11.6 SE 13 17 7 9 1013.6 1013.0 0.0
23/08:00pm 30.5 28.1 8.8 26 12.1 SE 11 13 6 7 1013.3 1012.7 0.0
23/07:30pm 31.5 29.2 9.1 25 12.6 SE 11 17 6 9 1012.9 1012.3 0.0
23/07:00pm 32.3 29.8 9.8 25 12.9 SE 13 24 7 13 1012.6 1012.0 0.0
23/06:30pm 33.0 31.7 9.1 23 13.6 SE 6 9 3 5 1012.5 1011.9 0.0
23/06:00pm 33.2 31.9 9.9 24 13.4 SSE 7 15 4 8 1012.3 1011.7 0.0
23/05:30pm 33.6 32.1 9.0 22 14.0 SSW 7 20 4 11 1011.8 1011.3 0.0
23/05:00pm 32.8 30.3 9.6 24 13.3 SSE 13 26 7 14 1012.2 1011.6 0.0
23/04:30pm 33.0 30.7 9.1 23 13.6 SSE 11 26 6 14 1012.6 1012.0 0.0
23/04:00pm 32.8 30.3 9.6 24 13.3 S 13 20 7 11 1012.9 1012.3 0.0
23/03:30pm 32.0 29.8 9.5 25 12.8 SE 11 20 6 11 1013.1 1012.5 0.0
23/03:00pm 31.6 29.8 10.9 28 12.0 SE 11 17 6 9 1013.5 1012.9 0.0
23/02:30pm 31.4 29.9 10.7 28 12.0 SE 9 19 5 10 1014.0 1013.4 0.0

Other Formats:

Comma delimited format used in spreadsheet applications
http://www.bom.gov.au/fwo/IDS60801/IDS60801.94655.axf

JavaScript Object Notation format (JSON) in row-major order
http://www.bom.gov.au/fwo/IDS60801/IDS60801.94655.json